sensor_id;sensor_type;location;lat;lon;timestamp;P1;durP1;ratioP1;P2;durP2;ratioP2
8462;SDS011;4268;52.506;13.462;2023-01-20T00:01:08;15.10;;;12.70;;
8462;SDS011;4268;52.506;13.462;2023-01-20T00:03:39;14.10;;;12.13;;
8462;SDS011;4268;52.506;13.462;2023-01-20T00:06:09;12.63;;;11.07;;
8462;SDS011;4268;52.506;13.462;2023-01-20T00:08:35;13.73;;;11.50;;
8462;SDS011;4268;52.506;13.462;2023-01-20T00:11:03;13.80;;;12.37;;
8462;SDS011;4268;52.506;13.462;2023-01-20T00:13:30;12.73;;;11.40;;
8462;SDS011;4268;52.506;13.462;2023-01-20T00:15:55;15.07;;;12.60;;
8462;SDS011;4268;52.506;13.462;2023-01-20T00:18:21;16.80;;;12.80;;
8462;SDS011;4268;52.506;13.462;2023-01-20T00:20:46;17.63;;;12.87;;
8462;SDS011;4268;52.506;13.462;2023-01-20T00:23:12;13.87;;;11.97;;
8462;SDS011;4268;52.506;13.462;2023-01-20T00:25:37;16.00;;;13.60;;
8462;SDS011;4268;52.506;13.462;2023-01-20T00:28:03;14.03;;;12.37;;
8462;SDS011;4268;52.506;13.462;2023-01-20T00:30:29;14.20;;;12.30;;
8462;SDS011;4268;52.506;13.462;2023-01-20T00:32:55;15.03;;;12.60;;
8462;SDS011;4268;52.506;13.462;2023-01-20T00:35:20;13.73;;;11.97;;
8462;SDS011;4268;52.506;13.462;2023-01-20T00:37:46;15.73;;;12.10;;
8462;SDS011;4268;52.506;13.462;2023-01-20T00:40:12;13.93;;;11.13;;
8462;SDS011;4268;52.506;13.462;2023-01-20T00:42:37;14.27;;;11.80;;
8462;SDS011;4268;52.506;13.462;2023-01-20T00:45:03;15.27;;;12.33;;
8462;SDS011;4268;52.506;13.462;2023-01-20T00:47:29;13.73;;;10.97;;
8462;SDS011;4268;52.506;13.462;2023-01-20T00:49:54;14.50;;;11.40;;
8462;SDS011;4268;52.506;13.462;2023-01-20T00:52:20;16.20;;;12.17;;
8462;SDS011;4268;52.506;13.462;2023-01-20T00:54:46;12.87;;;11.17;;
8462;SDS011;4268;52.506;13.462;2023-01-20T00:57:11;13.33;;;11.40;;
8462;SDS011;4268;52.506;13.462;2023-01-20T00:59:37;14.67;;;11.90;;
8462;SDS011;4268;52.506;13.462;2023-01-20T01:02:03;14.47;;;11.27;;
8462;SDS011;4268;52.506;13.462;2023-01-20T01:04:28;12.53;;;11.03;;
8462;SDS011;4268;52.506;13.462;2023-01-20T01:06:54;13.77;;;11.53;;
8462;SDS011;4268;52.506;13.462;2023-01-20T01:09:20;17.60;;;11.53;;
8462;SDS011;4268;52.506;13.462;2023-01-20T01:11:46;12.97;;;10.87;;
8462;SDS011;4268;52.506;13.462;2023-01-20T01:14:12;14.63;;;11.17;;
8462;SDS011;4268;52.506;13.462;2023-01-20T01:16:37;14.17;;;11.30;;
8462;SDS011;4268;52.506;13.462;2023-01-20T01:19:03;14.60;;;11.97;;
8462;SDS011;4268;52.506;13.462;2023-01-20T01:21:28;15.83;;;11.10;;
8462;SDS011;4268;52.506;13.462;2023-01-20T01:23:54;13.10;;;11.13;;
8462;SDS011;4268;52.506;13.462;2023-01-20T01:26:19;14.70;;;11.73;;
8462;SDS011;4268;52.506;13.462;2023-01-20T01:28:48;12.57;;;10.83;;
8462;SDS011;4268;52.506;13.462;2023-01-20T01:31:14;14.37;;;11.73;;
8462;SDS011;4268;52.506;13.462;2023-01-20T01:33:42;12.60;;;10.97;;
8462;SDS011;4268;52.506;13.462;2023-01-20T01:36:11;11.87;;;10.53;;
8462;SDS011;4268;52.506;13.462;2023-01-20T01:38:38;12.37;;;10.47;;
8462;SDS011;4268;52.506;13.462;2023-01-20T01:41:04;13.50;;;10.70;;
8462;SDS011;4268;52.506;13.462;2023-01-20T01:43:31;12.03;;;10.83;;
8462;SDS011;4268;52.506;13.462;2023-01-20T01:45:58;14.80;;;10.80;;
8462;SDS011;4268;52.506;13.462;2023-01-20T01:48:27;14.10;;;11.60;;
8462;SDS011;4268;52.506;13.462;2023-01-20T01:53:29;15.13;;;10.97;;
8462;SDS011;4268;52.506;13.462;2023-01-20T01:56:01;13.50;;;11.33;;
8462;SDS011;4268;52.506;13.462;2023-01-20T01:58:29;13.77;;;10.73;;
8462;SDS011;4268;52.506;13.462;2023-01-20T02:00:59;13.57;;;10.83;;
8462;SDS011;4268;52.506;13.462;2023-01-20T02:03:26;14.13;;;11.67;;
8462;SDS011;4268;52.506;13.462;2023-01-20T02:05:55;12.53;;;10.57;;
8462;SDS011;4268;52.506;13.462;2023-01-20T02:08:21;12.73;;;10.97;;
8462;SDS011;4268;52.506;13.462;2023-01-20T02:10:48;15.80;;;11.10;;
8462;SDS011;4268;52.506;13.462;2023-01-20T02:13:14;11.00;;;9.87;;
8462;SDS011;4268;52.506;13.462;2023-01-20T02:15:41;13.47;;;10.87;;
8462;SDS011;4268;52.506;13.462;2023-01-20T02:18:16;13.00;;;10.70;;
8462;SDS011;4268;52.506;13.462;2023-01-20T02:27:13;12.63;;;10.03;;
8462;SDS011;4268;52.506;13.462;2023-01-20T02:30:44;10.73;;;9.47;;
8462;SDS011;4268;52.506;13.462;2023-01-20T02:33:09;12.60;;;10.70;;
8462;SDS011;4268;52.506;13.462;2023-01-20T02:36:46;12.80;;;10.83;;
8462;SDS011;4268;52.506;13.462;2023-01-20T02:39:00;12.13;;;10.23;;
8462;SDS011;4268;52.506;13.462;2023-01-20T02:44:22;15.40;;;11.63;;
8462;SDS011;4268;52.506;13.462;2023-01-20T02:49:56;13.07;;;10.80;;
8462;SDS011;4268;52.506;13.462;2023-01-20T02:52:35;15.77;;;11.63;;
8462;SDS011;4268;52.506;13.462;2023-01-20T02:55:06;14.67;;;11.33;;
8462;SDS011;4268;52.506;13.462;2023-01-20T02:57:47;14.10;;;11.53;;
8462;SDS011;4268;52.506;13.462;2023-01-20T03:00:22;13.83;;;11.23;;
8462;SDS011;4268;52.506;13.462;2023-01-20T03:02:53;15.23;;;11.53;;
8462;SDS011;4268;52.506;13.462;2023-01-20T03:05:23;14.00;;;10.90;;
8462;SDS011;4268;52.506;13.462;2023-01-20T03:07:53;15.50;;;11.90;;
8462;SDS011;4268;52.506;13.462;2023-01-20T03:10:21;15.93;;;11.10;;
8462;SDS011;4268;52.506;13.462;2023-01-20T03:12:54;13.67;;;11.03;;
8462;SDS011;4268;52.506;13.462;2023-01-20T03:15:24;13.77;;;11.83;;
8462;SDS011;4268;52.506;13.462;2023-01-20T03:17:54;14.83;;;12.13;;
8462;SDS011;4268;52.506;13.462;2023-01-20T03:20:20;14.17;;;11.53;;
8462;SDS011;4268;52.506;13.462;2023-01-20T03:22:45;14.93;;;11.97;;
8462;SDS011;4268;52.506;13.462;2023-01-20T03:25:11;14.23;;;11.17;;
8462;SDS011;4268;52.506;13.462;2023-01-20T03:27:38;14.70;;;11.43;;
8462;SDS011;4268;52.506;13.462;2023-01-20T03:30:05;13.90;;;11.33;;
8462;SDS011;4268;52.506;13.462;2023-01-20T03:32:41;13.67;;;11.13;;
8462;SDS011;4268;52.506;13.462;2023-01-20T03:35:10;15.23;;;12.37;;
8462;SDS011;4268;52.506;13.462;2023-01-20T03:37:40;14.27;;;11.80;;
8462;SDS011;4268;52.506;13.462;2023-01-20T03:40:07;16.23;;;11.10;;
8462;SDS011;4268;52.506;13.462;2023-01-20T03:42:34;14.87;;;12.00;;
8462;SDS011;4268;52.506;13.462;2023-01-20T03:45:10;14.07;;;11.10;;
8462;SDS011;4268;52.506;13.462;2023-01-20T03:50:25;13.63;;;12.13;;
8462;SDS011;4268;52.506;13.462;2023-01-20T03:55:47;16.90;;;12.27;;
8462;SDS011;4268;52.506;13.462;2023-01-20T03:58:25;16.67;;;12.53;;
8462;SDS011;4268;52.506;13.462;2023-01-20T04:00:54;14.47;;;12.20;;
8462;SDS011;4268;52.506;13.462;2023-01-20T04:03:25;16.10;;;12.90;;
8462;SDS011;4268;52.506;13.462;2023-01-20T04:05:55;15.97;;;11.93;;
8462;SDS011;4268;52.506;13.462;2023-01-20T04:08:24;19.50;;;13.10;;
8462;SDS011;4268;52.506;13.462;2023-01-20T04:10:52;14.47;;;12.50;;
8462;SDS011;4268;52.506;13.462;2023-01-20T04:13:20;15.63;;;12.43;;
8462;SDS011;4268;52.506;13.462;2023-01-20T04:15:46;14.23;;;12.53;;
8462;SDS011;4268;52.506;13.462;2023-01-20T04:18:12;15.17;;;12.57;;
8462;SDS011;4268;52.506;13.462;2023-01-20T04:20:43;15.70;;;12.30;;
8462;SDS011;4268;52.506;13.462;2023-01-20T04:23:44;17.17;;;14.30;;
8462;SDS011;4268;52.506;13.462;2023-01-20T04:26:04;18.30;;;13.23;;
8462;SDS011;4268;52.506;13.462;2023-01-20T04:28:30;14.97;;;12.80;;
8462;SDS011;4268;52.506;13.462;2023-01-20T04:30:56;16.13;;;13.07;;
8462;SDS011;4268;52.506;13.462;2023-01-20T04:33:21;17.63;;;13.20;;
8462;SDS011;4268;52.506;13.462;2023-01-20T04:35:47;16.73;;;13.83;;
8462;SDS011;4268;52.506;13.462;2023-01-20T04:38:12;18.23;;;13.27;;
8462;SDS011;4268;52.506;13.462;2023-01-20T04:40:38;18.63;;;14.73;;
8462;SDS011;4268;52.506;13.462;2023-01-20T04:43:03;17.43;;;14.00;;
8462;SDS011;4268;52.506;13.462;2023-01-20T04:45:29;17.50;;;13.93;;
8462;SDS011;4268;52.506;13.462;2023-01-20T04:47:54;18.23;;;14.37;;
8462;SDS011;4268;52.506;13.462;2023-01-20T04:50:20;15.70;;;13.77;;
8462;SDS011;4268;52.506;13.462;2023-01-20T04:52:45;17.80;;;14.57;;
8462;SDS011;4268;52.506;13.462;2023-01-20T04:55:11;18.70;;;14.93;;
8462;SDS011;4268;52.506;13.462;2023-01-20T04:57:37;17.37;;;14.07;;
8462;SDS011;4268;52.506;13.462;2023-01-20T05:00:03;16.00;;;14.27;;
8462;SDS011;4268;52.506;13.462;2023-01-20T05:02:29;16.63;;;13.70;;
8462;SDS011;4268;52.506;13.462;2023-01-20T05:04:55;17.10;;;14.30;;
8462;SDS011;4268;52.506;13.462;2023-01-20T05:07:20;20.00;;;15.00;;
8462;SDS011;4268;52.506;13.462;2023-01-20T05:09:46;17.50;;;14.80;;
8462;SDS011;4268;52.506;13.462;2023-01-20T05:12:11;19.67;;;14.93;;
8462;SDS011;4268;52.506;13.462;2023-01-20T05:14:37;17.57;;;15.23;;
8462;SDS011;4268;52.506;13.462;2023-01-20T05:17:02;18.27;;;15.33;;
8462;SDS011;4268;52.506;13.462;2023-01-20T05:19:27;18.77;;;14.87;;
8462;SDS011;4268;52.506;13.462;2023-01-20T05:21:53;19.77;;;15.63;;
8462;SDS011;4268;52.506;13.462;2023-01-20T05:24:18;20.80;;;15.07;;
8462;SDS011;4268;52.506;13.462;2023-01-20T05:26:44;19.37;;;16.07;;
8462;SDS011;4268;52.506;13.462;2023-01-20T05:29:09;20.07;;;16.00;;
8462;SDS011;4268;52.506;13.462;2023-01-20T05:31:35;22.20;;;16.80;;
8462;SDS011;4268;52.506;13.462;2023-01-20T05:34:02;19.33;;;16.83;;
8462;SDS011;4268;52.506;13.462;2023-01-20T05:36:29;19.50;;;16.33;;
8462;SDS011;4268;52.506;13.462;2023-01-20T05:38:54;21.50;;;16.47;;
8462;SDS011;4268;52.506;13.462;2023-01-20T05:41:20;20.77;;;16.67;;
8462;SDS011;4268;52.506;13.462;2023-01-20T05:43:45;19.43;;;17.10;;
8462;SDS011;4268;52.506;13.462;2023-01-20T05:46:11;21.77;;;18.47;;
8462;SDS011;4268;52.506;13.462;2023-01-20T05:48:36;20.00;;;17.13;;
8462;SDS011;4268;52.506;13.462;2023-01-20T05:51:02;20.80;;;17.57;;
8462;SDS011;4268;52.506;13.462;2023-01-20T05:53:27;23.40;;;17.70;;
8462;SDS011;4268;52.506;13.462;2023-01-20T05:56:03;20.67;;;17.60;;
8462;SDS011;4268;52.506;13.462;2023-01-20T05:58:29;22.27;;;18.00;;
8462;SDS011;4268;52.506;13.462;2023-01-20T06:01:06;21.00;;;18.37;;
8462;SDS011;4268;52.506;13.462;2023-01-20T06:03:32;24.07;;;18.17;;
8462;SDS011;4268;52.506;13.462;2023-01-20T06:05:58;23.67;;;19.00;;
8462;SDS011;4268;52.506;13.462;2023-01-20T06:08:28;21.43;;;18.27;;
8462;SDS011;4268;52.506;13.462;2023-01-20T06:10:54;26.53;;;20.03;;
8462;SDS011;4268;52.506;13.462;2023-01-20T06:13:19;20.73;;;17.57;;
8462;SDS011;4268;52.506;13.462;2023-01-20T06:15:49;27.07;;;20.20;;
8462;SDS011;4268;52.506;13.462;2023-01-20T06:18:16;22.40;;;17.90;;
8462;SDS011;4268;52.506;13.462;2023-01-20T06:20:42;23.53;;;18.17;;
8462;SDS011;4268;52.506;13.462;2023-01-20T06:23:07;22.60;;;18.03;;
8462;SDS011;4268;52.506;13.462;2023-01-20T06:25:33;21.43;;;17.53;;
8462;SDS011;4268;52.506;13.462;2023-01-20T06:27:58;24.00;;;19.13;;
8462;SDS011;4268;52.506;13.462;2023-01-20T06:30:24;23.87;;;19.10;;
8462;SDS011;4268;52.506;13.462;2023-01-20T06:32:49;23.87;;;19.13;;
8462;SDS011;4268;52.506;13.462;2023-01-20T06:35:15;23.13;;;18.80;;
8462;SDS011;4268;52.506;13.462;2023-01-20T06:37:40;24.97;;;20.83;;
8462;SDS011;4268;52.506;13.462;2023-01-20T06:40:06;24.90;;;18.93;;
8462;SDS011;4268;52.506;13.462;2023-01-20T06:42:32;23.43;;;19.00;;
8462;SDS011;4268;52.506;13.462;2023-01-20T06:44:58;23.27;;;18.50;;
8462;SDS011;4268;52.506;13.462;2023-01-20T06:47:23;22.40;;;18.37;;
8462;SDS011;4268;52.506;13.462;2023-01-20T06:49:48;21.83;;;17.43;;
8462;SDS011;4268;52.506;13.462;2023-01-20T06:52:14;21.80;;;18.87;;
8462;SDS011;4268;52.506;13.462;2023-01-20T06:54:39;21.73;;;18.20;;
8462;SDS011;4268;52.506;13.462;2023-01-20T06:57:05;25.27;;;19.20;;
8462;SDS011;4268;52.506;13.462;2023-01-20T06:59:30;24.07;;;18.10;;
8462;SDS011;4268;52.506;13.462;2023-01-20T07:01:56;23.40;;;17.73;;
8462;SDS011;4268;52.506;13.462;2023-01-20T07:04:21;21.73;;;17.33;;
8462;SDS011;4268;52.506;13.462;2023-01-20T07:06:47;20.17;;;17.43;;
8462;SDS011;4268;52.506;13.462;2023-01-20T07:09:12;23.27;;;19.40;;
8462;SDS011;4268;52.506;13.462;2023-01-20T07:11:38;22.33;;;19.10;;
8462;SDS011;4268;52.506;13.462;2023-01-20T07:14:04;22.87;;;19.03;;
8462;SDS011;4268;52.506;13.462;2023-01-20T07:16:30;23.90;;;21.40;;
8462;SDS011;4268;52.506;13.462;2023-01-20T07:18:56;24.70;;;19.63;;
8462;SDS011;4268;52.506;13.462;2023-01-20T07:21:22;25.23;;;21.37;;
8462;SDS011;4268;52.506;13.462;2023-01-20T07:23:48;25.87;;;20.80;;
8462;SDS011;4268;52.506;13.462;2023-01-20T07:26:15;27.73;;;20.83;;
8462;SDS011;4268;52.506;13.462;2023-01-20T07:28:41;26.50;;;20.40;;
8462;SDS011;4268;52.506;13.462;2023-01-20T07:31:08;26.47;;;19.80;;
8462;SDS011;4268;52.506;13.462;2023-01-20T07:33:44;24.50;;;18.83;;
8462;SDS011;4268;52.506;13.462;2023-01-20T07:36:10;26.53;;;19.13;;
8462;SDS011;4268;52.506;13.462;2023-01-20T07:38:38;24.03;;;19.97;;
8462;SDS011;4268;52.506;13.462;2023-01-20T07:41:04;23.70;;;19.23;;
8462;SDS011;4268;52.506;13.462;2023-01-20T07:43:31;26.80;;;20.57;;
8462;SDS011;4268;52.506;13.462;2023-01-20T07:45:58;24.63;;;20.00;;
8462;SDS011;4268;52.506;13.462;2023-01-20T07:48:25;28.83;;;20.87;;
8462;SDS011;4268;52.506;13.462;2023-01-20T07:50:58;25.50;;;19.03;;
8462;SDS011;4268;52.506;13.462;2023-01-20T07:53:36;24.33;;;18.87;;
8462;SDS011;4268;52.506;13.462;2023-01-20T07:56:10;22.70;;;18.93;;
8462;SDS011;4268;52.506;13.462;2023-01-20T07:58:37;23.07;;;18.67;;
8462;SDS011;4268;52.506;13.462;2023-01-20T08:01:13;26.40;;;19.07;;
8462;SDS011;4268;52.506;13.462;2023-01-20T08:03:42;31.33;;;19.67;;
8462;SDS011;4268;52.506;13.462;2023-01-20T08:06:08;23.30;;;18.33;;
8462;SDS011;4268;52.506;13.462;2023-01-20T08:08:36;27.03;;;19.63;;
8462;SDS011;4268;52.506;13.462;2023-01-20T08:11:01;24.30;;;18.47;;
8462;SDS011;4268;52.506;13.462;2023-01-20T08:13:29;21.33;;;17.33;;
8462;SDS011;4268;52.506;13.462;2023-01-20T08:15:58;23.50;;;18.40;;
8462;SDS011;4268;52.506;13.462;2023-01-20T08:18:25;25.00;;;19.57;;
8462;SDS011;4268;52.506;13.462;2023-01-20T08:20:50;28.93;;;20.10;;
8462;SDS011;4268;52.506;13.462;2023-01-20T08:23:16;27.47;;;19.20;;
8462;SDS011;4268;52.506;13.462;2023-01-20T08:25:41;26.73;;;19.10;;
8462;SDS011;4268;52.506;13.462;2023-01-20T08:28:07;25.30;;;18.60;;
8462;SDS011;4268;52.506;13.462;2023-01-20T08:30:33;24.00;;;18.73;;
8462;SDS011;4268;52.506;13.462;2023-01-20T08:32:58;25.57;;;18.20;;
8462;SDS011;4268;52.506;13.462;2023-01-20T08:35:24;26.20;;;18.97;;
8462;SDS011;4268;52.506;13.462;2023-01-20T08:37:50;24.97;;;19.07;;
8462;SDS011;4268;52.506;13.462;2023-01-20T08:40:15;25.60;;;19.13;;
8462;SDS011;4268;52.506;13.462;2023-01-20T08:42:41;25.07;;;19.60;;
8462;SDS011;4268;52.506;13.462;2023-01-20T08:45:07;26.17;;;20.67;;
8462;SDS011;4268;52.506;13.462;2023-01-20T08:47:36;24.27;;;21.43;;
8462;SDS011;4268;52.506;13.462;2023-01-20T08:50:04;24.57;;;18.70;;
8462;SDS011;4268;52.506;13.462;2023-01-20T08:52:31;24.00;;;19.43;;
8462;SDS011;4268;52.506;13.462;2023-01-20T08:54:57;28.47;;;20.83;;
8462;SDS011;4268;52.506;13.462;2023-01-20T08:57:26;28.50;;;18.90;;
8462;SDS011;4268;52.506;13.462;2023-01-20T08:59:52;25.90;;;18.33;;
8462;SDS011;4268;52.506;13.462;2023-01-20T09:02:18;23.20;;;17.60;;
8462;SDS011;4268;52.506;13.462;2023-01-20T09:04:43;23.27;;;17.60;;
8462;SDS011;4268;52.506;13.462;2023-01-20T09:07:09;20.70;;;17.77;;
8462;SDS011;4268;52.506;13.462;2023-01-20T09:09:36;27.10;;;17.30;;
8462;SDS011;4268;52.506;13.462;2023-01-20T09:12:02;25.50;;;18.37;;
8462;SDS011;4268;52.506;13.462;2023-01-20T09:14:29;25.77;;;22.80;;
8462;SDS011;4268;52.506;13.462;2023-01-20T09:16:54;25.03;;;18.43;;
8462;SDS011;4268;52.506;13.462;2023-01-20T09:19:20;24.73;;;19.40;;
8462;SDS011;4268;52.506;13.462;2023-01-20T09:21:45;24.93;;;18.73;;
8462;SDS011;4268;52.506;13.462;2023-01-20T09:24:11;23.50;;;18.67;;
8462;SDS011;4268;52.506;13.462;2023-01-20T09:26:36;27.17;;;19.80;;
8462;SDS011;4268;52.506;13.462;2023-01-20T09:29:06;25.57;;;18.87;;
8462;SDS011;4268;52.506;13.462;2023-01-20T09:31:37;24.87;;;18.10;;
8462;SDS011;4268;52.506;13.462;2023-01-20T09:34:04;26.47;;;20.20;;
8462;SDS011;4268;52.506;13.462;2023-01-20T09:36:30;31.50;;;21.10;;
8462;SDS011;4268;52.506;13.462;2023-01-20T09:38:55;28.73;;;20.30;;
8462;SDS011;4268;52.506;13.462;2023-01-20T09:41:44;30.13;;;21.57;;
8462;SDS011;4268;52.506;13.462;2023-01-20T09:44:38;26.20;;;20.03;;
8462;SDS011;4268;52.506;13.462;2023-01-20T09:55:57;22.97;;;18.47;;
8462;SDS011;4268;52.506;13.462;2023-01-20T09:58:29;24.53;;;19.77;;
8462;SDS011;4268;52.506;13.462;2023-01-20T10:03:36;24.73;;;18.93;;
8462;SDS011;4268;52.506;13.462;2023-01-20T10:06:33;25.60;;;19.90;;
8462;SDS011;4268;52.506;13.462;2023-01-20T10:09:02;26.13;;;20.07;;
8462;SDS011;4268;52.506;13.462;2023-01-20T10:11:33;25.03;;;20.13;;
8462;SDS011;4268;52.506;13.462;2023-01-20T10:16:36;25.13;;;20.03;;
8462;SDS011;4268;52.506;13.462;2023-01-20T10:19:32;26.47;;;20.50;;
8462;SDS011;4268;52.506;13.462;2023-01-20T10:22:38;23.57;;;18.77;;
8462;SDS011;4268;52.506;13.462;2023-01-20T10:25:03;22.20;;;18.60;;
8462;SDS011;4268;52.506;13.462;2023-01-20T10:27:39;24.03;;;19.07;;
8462;SDS011;4268;52.506;13.462;2023-01-20T10:30:14;23.47;;;19.07;;
8462;SDS011;4268;52.506;13.462;2023-01-20T10:32:41;26.23;;;19.10;;
8462;SDS011;4268;52.506;13.462;2023-01-20T10:35:20;25.27;;;19.23;;
8462;SDS011;4268;52.506;13.462;2023-01-20T10:37:50;25.73;;;20.83;;
8462;SDS011;4268;52.506;13.462;2023-01-20T10:40:28;28.10;;;20.60;;
8462;SDS011;4268;52.506;13.462;2023-01-20T10:43:00;25.80;;;19.43;;
8462;SDS011;4268;52.506;13.462;2023-01-20T10:51:32;25.57;;;21.67;;
8462;SDS011;4268;52.506;13.462;2023-01-20T10:56:52;24.43;;;18.90;;
8462;SDS011;4268;52.506;13.462;2023-01-20T10:59:30;24.50;;;18.97;;
8462;SDS011;4268;52.506;13.462;2023-01-20T11:02:09;27.60;;;19.90;;
8462;SDS011;4268;52.506;13.462;2023-01-20T11:04:36;26.83;;;20.67;;
8462;SDS011;4268;52.506;13.462;2023-01-20T11:07:02;30.10;;;23.43;;
8462;SDS011;4268;52.506;13.462;2023-01-20T11:09:33;29.13;;;19.70;;
8462;SDS011;4268;52.506;13.462;2023-01-20T11:12:02;23.97;;;19.53;;
8462;SDS011;4268;52.506;13.462;2023-01-20T11:14:31;32.33;;;25.57;;
8462;SDS011;4268;52.506;13.462;2023-01-20T11:16:59;27.77;;;21.53;;
8462;SDS011;4268;52.506;13.462;2023-01-20T11:19:43;27.57;;;20.63;;
8462;SDS011;4268;52.506;13.462;2023-01-20T11:22:30;28.60;;;21.77;;
8462;SDS011;4268;52.506;13.462;2023-01-20T11:24:58;26.33;;;19.97;;
8462;SDS011;4268;52.506;13.462;2023-01-20T11:27:40;24.73;;;19.47;;
8462;SDS011;4268;52.506;13.462;2023-01-20T11:30:20;25.93;;;19.90;;
8462;SDS011;4268;52.506;13.462;2023-01-20T11:36:01;23.83;;;18.83;;
8462;SDS011;4268;52.506;13.462;2023-01-20T11:41:21;26.30;;;20.43;;
8462;SDS011;4268;52.506;13.462;2023-01-20T11:43:49;25.77;;;20.17;;
8462;SDS011;4268;52.506;13.462;2023-01-20T11:46:21;29.40;;;26.30;;
8462;SDS011;4268;52.506;13.462;2023-01-20T11:51:47;29.50;;;21.27;;
8462;SDS011;4268;52.506;13.462;2023-01-20T11:54:18;25.27;;;19.60;;
8462;SDS011;4268;52.506;13.462;2023-01-20T11:56:50;26.23;;;20.00;;
8462;SDS011;4268;52.506;13.462;2023-01-20T11:59:32;28.83;;;21.33;;
8462;SDS011;4268;52.506;13.462;2023-01-20T12:02:00;25.27;;;19.13;;
8462;SDS011;4268;52.506;13.462;2023-01-20T12:07:13;24.67;;;19.37;;
8462;SDS011;4268;52.506;13.462;2023-01-20T12:09:44;25.60;;;22.03;;
8462;SDS011;4268;52.506;13.462;2023-01-20T12:12:19;27.10;;;20.60;;
8462;SDS011;4268;52.506;13.462;2023-01-20T12:14:54;27.07;;;20.77;;
8462;SDS011;4268;52.506;13.462;2023-01-20T12:20:21;26.87;;;20.03;;
8462;SDS011;4268;52.506;13.462;2023-01-20T12:25:48;28.33;;;22.33;;
8462;SDS011;4268;52.506;13.462;2023-01-20T12:28:37;23.23;;;18.93;;
8462;SDS011;4268;52.506;13.462;2023-01-20T12:31:23;23.27;;;19.50;;
8462;SDS011;4268;52.506;13.462;2023-01-20T12:33:58;27.10;;;20.53;;
8462;SDS011;4268;52.506;13.462;2023-01-20T12:44:45;24.83;;;20.80;;
8462;SDS011;4268;52.506;13.462;2023-01-20T12:50:31;27.43;;;20.17;;
8462;SDS011;4268;52.506;13.462;2023-01-20T12:59:00;30.17;;;23.27;;
8462;SDS011;4268;52.506;13.462;2023-01-20T13:02:00;27.50;;;21.63;;
8462;SDS011;4268;52.506;13.462;2023-01-20T13:07:26;27.40;;;20.90;;
8462;SDS011;4268;52.506;13.462;2023-01-20T13:09:57;28.17;;;22.33;;
8462;SDS011;4268;52.506;13.462;2023-01-20T13:21:40;31.57;;;23.27;;
8462;SDS011;4268;52.506;13.462;2023-01-20T13:24:08;33.53;;;23.13;;
8462;SDS011;4268;52.506;13.462;2023-01-20T13:26:42;30.70;;;22.10;;
8462;SDS011;4268;52.506;13.462;2023-01-20T13:29:21;34.73;;;27.00;;
8462;SDS011;4268;52.506;13.462;2023-01-20T13:32:16;28.87;;;22.90;;
8462;SDS011;4268;52.506;13.462;2023-01-20T13:35:00;30.20;;;23.83;;
8462;SDS011;4268;52.506;13.462;2023-01-20T13:37:50;30.90;;;25.63;;
8462;SDS011;4268;52.506;13.462;2023-01-20T13:43:47;32.03;;;23.53;;
8462;SDS011;4268;52.506;13.462;2023-01-20T13:45:48;29.90;;;23.17;;
8462;SDS011;4268;52.506;13.462;2023-01-20T13:48:34;32.40;;;24.43;;
8462;SDS011;4268;52.506;13.462;2023-01-20T13:51:41;30.67;;;22.97;;
8462;SDS011;4268;52.506;13.462;2023-01-20T13:53:53;28.43;;;21.50;;
8462;SDS011;4268;52.506;13.462;2023-01-20T13:56:39;31.33;;;22.50;;
8462;SDS011;4268;52.506;13.462;2023-01-20T13:59:06;29.10;;;21.67;;
8462;SDS011;4268;52.506;13.462;2023-01-20T14:01:32;28.50;;;24.53;;
8462;SDS011;4268;52.506;13.462;2023-01-20T14:04:03;27.97;;;21.77;;
8462;SDS011;4268;52.506;13.462;2023-01-20T14:06:30;27.10;;;21.27;;
8462;SDS011;4268;52.506;13.462;2023-01-20T14:08:59;27.23;;;22.77;;
8462;SDS011;4268;52.506;13.462;2023-01-20T14:11:26;27.87;;;21.63;;
8462;SDS011;4268;52.506;13.462;2023-01-20T14:14:00;25.93;;;23.07;;
8462;SDS011;4268;52.506;13.462;2023-01-20T14:18:58;32.40;;;28.43;;
8462;SDS011;4268;52.506;13.462;2023-01-20T14:21:43;26.70;;;23.33;;
8462;SDS011;4268;52.506;13.462;2023-01-20T14:29:40;26.80;;;21.17;;
8462;SDS011;4268;52.506;13.462;2023-01-20T14:32:12;28.40;;;22.60;;
8462;SDS011;4268;52.506;13.462;2023-01-20T14:34:43;30.13;;;23.27;;
8462;SDS011;4268;52.506;13.462;2023-01-20T14:37:28;29.33;;;23.17;;
8462;SDS011;4268;52.506;13.462;2023-01-20T14:39:59;30.40;;;22.77;;
8462;SDS011;4268;52.506;13.462;2023-01-20T14:42:32;28.33;;;21.77;;
8462;SDS011;4268;52.506;13.462;2023-01-20T14:44:57;27.17;;;21.57;;
8462;SDS011;4268;52.506;13.462;2023-01-20T14:47:23;29.73;;;20.87;;
8462;SDS011;4268;52.506;13.462;2023-01-20T14:49:50;26.60;;;20.90;;
8462;SDS011;4268;52.506;13.462;2023-01-20T14:52:19;30.47;;;22.63;;
8462;SDS011;4268;52.506;13.462;2023-01-20T14:54:50;30.13;;;23.03;;
8462;SDS011;4268;52.506;13.462;2023-01-20T14:59:46;30.00;;;22.27;;
8462;SDS011;4268;52.506;13.462;2023-01-20T15:02:26;29.93;;;23.13;;
8462;SDS011;4268;52.506;13.462;2023-01-20T15:04:54;30.83;;;23.90;;
8462;SDS011;4268;52.506;13.462;2023-01-20T15:07:20;32.20;;;24.30;;
8462;SDS011;4268;52.506;13.462;2023-01-20T15:09:53;26.90;;;21.97;;
8462;SDS011;4268;52.506;13.462;2023-01-20T15:12:33;32.67;;;22.97;;
8462;SDS011;4268;52.506;13.462;2023-01-20T15:15:10;33.57;;;23.00;;
8462;SDS011;4268;52.506;13.462;2023-01-20T15:17:40;34.50;;;23.13;;
8462;SDS011;4268;52.506;13.462;2023-01-20T15:20:26;29.77;;;22.67;;
8462;SDS011;4268;52.506;13.462;2023-01-20T15:22:55;33.50;;;23.90;;
8462;SDS011;4268;52.506;13.462;2023-01-20T15:25:21;30.27;;;22.40;;
8462;SDS011;4268;52.506;13.462;2023-01-20T15:27:50;29.03;;;22.27;;
8462;SDS011;4268;52.506;13.462;2023-01-20T15:30:18;30.97;;;23.67;;
8462;SDS011;4268;52.506;13.462;2023-01-20T15:32:47;29.90;;;21.20;;
8462;SDS011;4268;52.506;13.462;2023-01-20T15:35:15;30.50;;;21.60;;
8462;SDS011;4268;52.506;13.462;2023-01-20T15:37:43;37.43;;;23.07;;
8462;SDS011;4268;52.506;13.462;2023-01-20T15:40:19;29.87;;;21.97;;
8462;SDS011;4268;52.506;13.462;2023-01-20T15:42:46;32.40;;;21.50;;
8462;SDS011;4268;52.506;13.462;2023-01-20T15:45:13;32.17;;;21.50;;
8462;SDS011;4268;52.506;13.462;2023-01-20T15:47:40;35.47;;;21.27;;
8462;SDS011;4268;52.506;13.462;2023-01-20T15:50:25;35.17;;;23.27;;
8462;SDS011;4268;52.506;13.462;2023-01-20T15:52:51;30.43;;;21.43;;
8462;SDS011;4268;52.506;13.462;2023-01-20T15:55:17;34.37;;;21.87;;
8462;SDS011;4268;52.506;13.462;2023-01-20T15:57:43;31.23;;;22.93;;
8462;SDS011;4268;52.506;13.462;2023-01-20T16:00:15;31.73;;;23.23;;
8462;SDS011;4268;52.506;13.462;2023-01-20T16:02:42;34.10;;;25.10;;
8462;SDS011;4268;52.506;13.462;2023-01-20T16:05:08;30.83;;;22.43;;
8462;SDS011;4268;52.506;13.462;2023-01-20T16:07:35;30.47;;;22.77;;
8462;SDS011;4268;52.506;13.462;2023-01-20T16:10:00;31.60;;;23.83;;
8462;SDS011;4268;52.506;13.462;2023-01-20T16:12:26;29.03;;;23.33;;
8462;SDS011;4268;52.506;13.462;2023-01-20T16:14:51;27.00;;;21.40;;
8462;SDS011;4268;52.506;13.462;2023-01-20T16:17:18;31.03;;;22.53;;
8462;SDS011;4268;52.506;13.462;2023-01-20T16:19:45;32.10;;;23.53;;
8462;SDS011;4268;52.506;13.462;2023-01-20T16:22:11;31.93;;;23.63;;
8462;SDS011;4268;52.506;13.462;2023-01-20T16:24:40;28.83;;;22.70;;
8462;SDS011;4268;52.506;13.462;2023-01-20T16:27:15;32.30;;;22.77;;
8462;SDS011;4268;52.506;13.462;2023-01-20T16:29:43;33.87;;;22.77;;
8462;SDS011;4268;52.506;13.462;2023-01-20T16:32:09;27.57;;;21.77;;
8462;SDS011;4268;52.506;13.462;2023-01-20T16:34:35;33.13;;;23.07;;